sensor_id;sensor_type;location;lat;lon;timestamp;temperature;humidity
26803;DHT22;14378;51.796;5.808;2024-03-08T00:00:17;5.30;99.90
26803;DHT22;14378;51.796;5.808;2024-03-08T00:02:21;5.20;99.90
26803;DHT22;14378;51.796;5.808;2024-03-08T00:04:22;5.20;99.90
26803;DHT22;14378;51.796;5.808;2024-03-08T00:06:23;5.20;99.90
26803;DHT22;14378;51.796;5.808;2024-03-08T00:08:27;5.20;99.90
26803;DHT22;14378;51.796;5.808;2024-03-08T00:10:29;5.20;99.90
26803;DHT22;14378;51.796;5.808;2024-03-08T00:12:30;5.20;99.90
26803;DHT22;14378;51.796;5.808;2024-03-08T00:14:31;5.20;99.90
26803;DHT22;14378;51.796;5.808;2024-03-08T00:16:35;5.20;99.90
26803;DHT22;14378;51.796;5.808;2024-03-08T00:18:38;5.10;99.90
26803;DHT22;14378;51.796;5.808;2024-03-08T00:20:39;5.10;99.90
26803;DHT22;14378;51.796;5.808;2024-03-08T00:22:40;5.10;99.90
26803;DHT22;14378;51.796;5.808;2024-03-08T00:24:46;5.10;99.90
26803;DHT22;14378;51.796;5.808;2024-03-08T00:26:46;5.10;99.90
26803;DHT22;14378;51.796;5.808;2024-03-08T00:28:48;5.00;99.90
26803;DHT22;14378;51.796;5.808;2024-03-08T00:30:49;5.10;99.90
26803;DHT22;14378;51.796;5.808;2024-03-08T00:32:50;5.10;99.90
26803;DHT22;14378;51.796;5.808;2024-03-08T00:34:51;5.00;99.90
26803;DHT22;14378;51.796;5.808;2024-03-08T00:36:53;5.10;99.90
26803;DHT22;14378;51.796;5.808;2024-03-08T00:38:54;5.00;99.90
26803;DHT22;14378;51.796;5.808;2024-03-08T00:40:55;5.00;99.90
26803;DHT22;14378;51.796;5.808;2024-03-08T00:42:57;5.00;99.90
26803;DHT22;14378;51.796;5.808;2024-03-08T00:44:58;5.00;99.90
26803;DHT22;14378;51.796;5.808;2024-03-08T00:46:59;5.00;99.90
26803;DHT22;14378;51.796;5.808;2024-03-08T00:49:00;5.00;99.90
26803;DHT22;14378;51.796;5.808;2024-03-08T00:51:03;5.00;99.90
26803;DHT22;14378;51.796;5.808;2024-03-08T00:53:04;4.90;99.90
26803;DHT22;14378;51.796;5.808;2024-03-08T00:55:06;4.90;99.90
26803;DHT22;14378;51.796;5.808;2024-03-08T00:57:08;4.90;99.90
26803;DHT22;14378;51.796;5.808;2024-03-08T00:59:16;4.90;99.90
26803;DHT22;14378;51.796;5.808;2024-03-08T01:01:19;4.90;99.90
26803;DHT22;14378;51.796;5.808;2024-03-08T01:03:26;4.90;99.90
26803;DHT22;14378;51.796;5.808;2024-03-08T01:05:27;4.80;99.90
26803;DHT22;14378;51.796;5.808;2024-03-08T01:07:34;4.80;99.90
26803;DHT22;14378;51.796;5.808;2024-03-08T01:09:36;4.90;99.90
26803;DHT22;14378;51.796;5.808;2024-03-08T01:11:37;4.80;99.90
26803;DHT22;14378;51.796;5.808;2024-03-08T01:13:38;4.80;99.90
26803;DHT22;14378;51.796;5.808;2024-03-08T01:15:40;4.80;99.90
26803;DHT22;14378;51.796;5.808;2024-03-08T01:17:42;4.80;99.90
26803;DHT22;14378;51.796;5.808;2024-03-08T01:19:45;4.80;99.90
26803;DHT22;14378;51.796;5.808;2024-03-08T01:21:46;4.70;99.90
26803;DHT22;14378;51.796;5.808;2024-03-08T01:23:47;4.70;99.90
26803;DHT22;14378;51.796;5.808;2024-03-08T01:25:48;4.70;99.90
26803;DHT22;14378;51.796;5.808;2024-03-08T01:27:52;4.70;99.90
26803;DHT22;14378;51.796;5.808;2024-03-08T01:29:57;4.60;99.90
26803;DHT22;14378;51.796;5.808;2024-03-08T01:31:59;4.60;99.90
26803;DHT22;14378;51.796;5.808;2024-03-08T01:34:02;4.60;99.90
26803;DHT22;14378;51.796;5.808;2024-03-08T01:36:03;4.60;99.90
26803;DHT22;14378;51.796;5.808;2024-03-08T01:38:05;4.60;99.90
26803;DHT22;14378;51.796;5.808;2024-03-08T01:40:09;4.50;99.90
26803;DHT22;14378;51.796;5.808;2024-03-08T01:42:11;4.60;99.90
26803;DHT22;14378;51.796;5.808;2024-03-08T01:44:15;4.60;99.90
26803;DHT22;14378;51.796;5.808;2024-03-08T01:46:20;4.60;99.90
26803;DHT22;14378;51.796;5.808;2024-03-08T01:48:22;4.60;99.90
26803;DHT22;14378;51.796;5.808;2024-03-08T01:50:24;4.60;99.90
26803;DHT22;14378;51.796;5.808;2024-03-08T01:52:30;4.60;99.90
26803;DHT22;14378;51.796;5.808;2024-03-08T01:54:32;4.60;99.90
26803;DHT22;14378;51.796;5.808;2024-03-08T01:56:33;4.50;99.90
26803;DHT22;14378;51.796;5.808;2024-03-08T01:58:35;4.50;99.90
26803;DHT22;14378;51.796;5.808;2024-03-08T02:00:38;4.50;99.90
26803;DHT22;14378;51.796;5.808;2024-03-08T02:02:42;4.50;99.90
26803;DHT22;14378;51.796;5.808;2024-03-08T02:04:45;4.50;99.90
26803;DHT22;14378;51.796;5.808;2024-03-08T02:06:46;4.50;99.90
26803;DHT22;14378;51.796;5.808;2024-03-08T02:08:49;4.50;99.90
26803;DHT22;14378;51.796;5.808;2024-03-08T02:10:50;4.40;99.90
26803;DHT22;14378;51.796;5.808;2024-03-08T02:12:52;4.40;99.90
26803;DHT22;14378;51.796;5.808;2024-03-08T02:14:56;4.40;99.90
26803;DHT22;14378;51.796;5.808;2024-03-08T02:17:01;4.40;99.90
26803;DHT22;14378;51.796;5.808;2024-03-08T02:19:02;4.40;99.90
26803;DHT22;14378;51.796;5.808;2024-03-08T02:21:04;4.40;99.90
26803;DHT22;14378;51.796;5.808;2024-03-08T02:23:05;4.40;99.90
26803;DHT22;14378;51.796;5.808;2024-03-08T02:25:07;4.30;99.90
26803;DHT22;14378;51.796;5.808;2024-03-08T02:27:08;4.30;99.90
26803;DHT22;14378;51.796;5.808;2024-03-08T02:29:13;4.30;99.90
26803;DHT22;14378;51.796;5.808;2024-03-08T02:31:15;4.30;99.90
26803;DHT22;14378;51.796;5.808;2024-03-08T02:33:17;4.30;99.90
26803;DHT22;14378;51.796;5.808;2024-03-08T02:35:18;4.30;99.90
26803;DHT22;14378;51.796;5.808;2024-03-08T02:37:21;4.30;99.90
26803;DHT22;14378;51.796;5.808;2024-03-08T02:39:22;4.30;99.90
26803;DHT22;14378;51.796;5.808;2024-03-08T02:41:23;4.30;99.90
26803;DHT22;14378;51.796;5.808;2024-03-08T02:43:24;4.30;99.90
26803;DHT22;14378;51.796;5.808;2024-03-08T02:45:25;4.20;99.90
26803;DHT22;14378;51.796;5.808;2024-03-08T02:47:26;4.30;99.90
26803;DHT22;14378;51.796;5.808;2024-03-08T02:49:28;4.20;99.90
26803;DHT22;14378;51.796;5.808;2024-03-08T02:51:29;4.20;99.90
26803;DHT22;14378;51.796;5.808;2024-03-08T02:53:31;4.20;99.90
26803;DHT22;14378;51.796;5.808;2024-03-08T02:55:32;4.20;99.90
26803;DHT22;14378;51.796;5.808;2024-03-08T02:57:37;4.20;99.90
26803;DHT22;14378;51.796;5.808;2024-03-08T02:59:42;4.10;99.90
26803;DHT22;14378;51.796;5.808;2024-03-08T03:01:43;4.20;99.90
26803;DHT22;14378;51.796;5.808;2024-03-08T03:03:45;4.20;99.90
26803;DHT22;14378;51.796;5.808;2024-03-08T03:05:47;4.10;99.90
26803;DHT22;14378;51.796;5.808;2024-03-08T03:07:50;4.20;99.90
26803;DHT22;14378;51.796;5.808;2024-03-08T03:09:52;4.10;99.90
26803;DHT22;14378;51.796;5.808;2024-03-08T03:11:53;4.10;99.90
26803;DHT22;14378;51.796;5.808;2024-03-08T03:13:55;4.10;99.90
26803;DHT22;14378;51.796;5.808;2024-03-08T03:15:59;4.00;99.90
26803;DHT22;14378;51.796;5.808;2024-03-08T03:18:00;4.00;99.90
26803;DHT22;14378;51.796;5.808;2024-03-08T03:20:01;4.00;99.90
26803;DHT22;14378;51.796;5.808;2024-03-08T03:22:10;4.00;99.90
26803;DHT22;14378;51.796;5.808;2024-03-08T03:24:11;4.00;99.90
26803;DHT22;14378;51.796;5.808;2024-03-08T03:26:12;4.00;99.90
26803;DHT22;14378;51.796;5.808;2024-03-08T03:28:16;3.90;99.90
26803;DHT22;14378;51.796;5.808;2024-03-08T03:30:18;4.00;99.90
26803;DHT22;14378;51.796;5.808;2024-03-08T03:32:22;3.90;99.90
26803;DHT22;14378;51.796;5.808;2024-03-08T03:34:23;3.90;99.90
26803;DHT22;14378;51.796;5.808;2024-03-08T03:36:24;3.90;99.90
26803;DHT22;14378;51.796;5.808;2024-03-08T03:38:26;3.90;99.90
26803;DHT22;14378;51.796;5.808;2024-03-08T03:40:32;3.90;99.90
26803;DHT22;14378;51.796;5.808;2024-03-08T03:42:33;3.90;99.90
26803;DHT22;14378;51.796;5.808;2024-03-08T03:44:34;3.90;99.90
26803;DHT22;14378;51.796;5.808;2024-03-08T03:46:35;3.90;99.90
26803;DHT22;14378;51.796;5.808;2024-03-08T03:48:36;3.90;99.90
26803;DHT22;14378;51.796;5.808;2024-03-08T03:50:37;3.90;99.90
26803;DHT22;14378;51.796;5.808;2024-03-08T03:52:41;3.90;99.90
26803;DHT22;14378;51.796;5.808;2024-03-08T03:54:43;3.80;99.90
26803;DHT22;14378;51.796;5.808;2024-03-08T03:56:44;3.80;99.90
26803;DHT22;14378;51.796;5.808;2024-03-08T03:58:47;3.80;99.90
26803;DHT22;14378;51.796;5.808;2024-03-08T04:00:52;3.80;99.90
26803;DHT22;14378;51.796;5.808;2024-03-08T04:02:53;3.80;99.90
26803;DHT22;14378;51.796;5.808;2024-03-08T04:04:54;3.80;99.90
26803;DHT22;14378;51.796;5.808;2024-03-08T04:07:00;3.80;99.90
26803;DHT22;14378;51.796;5.808;2024-03-08T04:09:15;3.70;99.90
26803;DHT22;14378;51.796;5.808;2024-03-08T04:11:26;3.60;99.90
26803;DHT22;14378;51.796;5.808;2024-03-08T04:13:28;3.60;99.90
26803;DHT22;14378;51.796;5.808;2024-03-08T04:15:29;3.60;99.90
26803;DHT22;14378;51.796;5.808;2024-03-08T04:17:31;3.60;99.90
26803;DHT22;14378;51.796;5.808;2024-03-08T04:19:32;3.60;99.90
26803;DHT22;14378;51.796;5.808;2024-03-08T04:21:37;3.60;99.90
26803;DHT22;14378;51.796;5.808;2024-03-08T04:23:38;3.60;99.90
26803;DHT22;14378;51.796;5.808;2024-03-08T04:25:40;3.60;99.90
26803;DHT22;14378;51.796;5.808;2024-03-08T04:27:42;3.60;99.90
26803;DHT22;14378;51.796;5.808;2024-03-08T04:29:49;3.50;99.90
26803;DHT22;14378;51.796;5.808;2024-03-08T04:31:51;3.50;99.90
26803;DHT22;14378;51.796;5.808;2024-03-08T04:33:58;3.50;99.90
26803;DHT22;14378;51.796;5.808;2024-03-08T04:36:02;3.50;99.90
26803;DHT22;14378;51.796;5.808;2024-03-08T04:38:06;3.50;99.90
26803;DHT22;14378;51.796;5.808;2024-03-08T04:40:07;3.50;99.90
26803;DHT22;14378;51.796;5.808;2024-03-08T04:42:15;3.50;99.90
26803;DHT22;14378;51.796;5.808;2024-03-08T04:44:23;3.40;99.90
26803;DHT22;14378;51.796;5.808;2024-03-08T04:46:27;3.40;99.90
26803;DHT22;14378;51.796;5.808;2024-03-08T04:48:31;3.40;99.90
26803;DHT22;14378;51.796;5.808;2024-03-08T04:50:38;3.40;99.90
26803;DHT22;14378;51.796;5.808;2024-03-08T04:52:42;3.40;99.90
26803;DHT22;14378;51.796;5.808;2024-03-08T04:54:43;3.40;99.90
26803;DHT22;14378;51.796;5.808;2024-03-08T04:56:50;3.40;99.90
26803;DHT22;14378;51.796;5.808;2024-03-08T04:58:51;3.40;99.90
26803;DHT22;14378;51.796;5.808;2024-03-08T05:00:54;3.40;99.90
26803;DHT22;14378;51.796;5.808;2024-03-08T05:02:55;3.40;99.90
26803;DHT22;14378;51.796;5.808;2024-03-08T05:04:57;3.40;99.90
26803;DHT22;14378;51.796;5.808;2024-03-08T05:06:58;3.40;99.90
26803;DHT22;14378;51.796;5.808;2024-03-08T05:09:11;3.40;99.90
26803;DHT22;14378;51.796;5.808;2024-03-08T05:11:19;3.40;99.90
26803;DHT22;14378;51.796;5.808;2024-03-08T05:13:20;3.40;99.90
26803;DHT22;14378;51.796;5.808;2024-03-08T05:15:24;3.40;99.90
26803;DHT22;14378;51.796;5.808;2024-03-08T05:17:32;3.40;99.90
26803;DHT22;14378;51.796;5.808;2024-03-08T05:19:37;3.40;99.90
26803;DHT22;14378;51.796;5.808;2024-03-08T05:21:40;3.30;99.90
26803;DHT22;14378;51.796;5.808;2024-03-08T05:23:42;3.30;99.90
26803;DHT22;14378;51.796;5.808;2024-03-08T05:25:45;3.30;99.90
26803;DHT22;14378;51.796;5.808;2024-03-08T05:27:49;3.30;99.90
26803;DHT22;14378;51.796;5.808;2024-03-08T05:29:55;3.20;99.90
26803;DHT22;14378;51.796;5.808;2024-03-08T05:31:56;3.20;99.90
26803;DHT22;14378;51.796;5.808;2024-03-08T05:34:14;3.20;99.90
26803;DHT22;14378;51.796;5.808;2024-03-08T05:36:16;3.20;99.90
26803;DHT22;14378;51.796;5.808;2024-03-08T05:38:20;3.20;99.90
26803;DHT22;14378;51.796;5.808;2024-03-08T05:40:35;3.20;99.90
26803;DHT22;14378;51.796;5.808;2024-03-08T05:42:42;3.20;99.90
26803;DHT22;14378;51.796;5.808;2024-03-08T05:44:47;3.20;99.90
26803;DHT22;14378;51.796;5.808;2024-03-08T05:47:02;3.20;99.90
26803;DHT22;14378;51.796;5.808;2024-03-08T05:49:05;3.10;99.90
26803;DHT22;14378;51.796;5.808;2024-03-08T05:51:16;3.10;99.90
26803;DHT22;14378;51.796;5.808;2024-03-08T05:53:19;3.10;99.90
26803;DHT22;14378;51.796;5.808;2024-03-08T05:55:20;3.10;99.90
26803;DHT22;14378;51.796;5.808;2024-03-08T05:57:24;3.10;99.90
26803;DHT22;14378;51.796;5.808;2024-03-08T06:02:30;3.10;99.90
26803;DHT22;14378;51.796;5.808;2024-03-08T06:04:32;3.10;99.90
26803;DHT22;14378;51.796;5.808;2024-03-08T06:06:46;3.10;99.90
26803;DHT22;14378;51.796;5.808;2024-03-08T06:08:53;3.00;99.90
26803;DHT22;14378;51.796;5.808;2024-03-08T06:11:00;3.00;99.90
26803;DHT22;14378;51.796;5.808;2024-03-08T06:13:06;2.90;99.90
26803;DHT22;14378;51.796;5.808;2024-03-08T06:15:08;3.00;99.90
26803;DHT22;14378;51.796;5.808;2024-03-08T06:17:22;3.00;99.90
26803;DHT22;14378;51.796;5.808;2024-03-08T06:21:44;2.90;99.90
26803;DHT22;14378;51.796;5.808;2024-03-08T06:23:46;2.90;99.90
26803;DHT22;14378;51.796;5.808;2024-03-08T06:25:47;3.00;99.90
26803;DHT22;14378;51.796;5.808;2024-03-08T06:27:57;3.00;99.90
26803;DHT22;14378;51.796;5.808;2024-03-08T06:30:05;2.90;99.90
26803;DHT22;14378;51.796;5.808;2024-03-08T06:32:06;2.90;99.90
26803;DHT22;14378;51.796;5.808;2024-03-08T06:34:10;2.90;99.90
26803;DHT22;14378;51.796;5.808;2024-03-08T06:36:12;2.90;99.90
26803;DHT22;14378;51.796;5.808;2024-03-08T06:38:13;3.00;99.90
26803;DHT22;14378;51.796;5.808;2024-03-08T06:40:19;3.00;99.90
26803;DHT22;14378;51.796;5.808;2024-03-08T06:42:20;3.00;99.90
26803;DHT22;14378;51.796;5.808;2024-03-08T06:44:23;3.00;99.90
26803;DHT22;14378;51.796;5.808;2024-03-08T06:46:24;3.00;99.90
26803;DHT22;14378;51.796;5.808;2024-03-08T06:48:31;3.00;99.90
26803;DHT22;14378;51.796;5.808;2024-03-08T06:50:38;3.00;99.90
26803;DHT22;14378;51.796;5.808;2024-03-08T06:52:43;3.00;99.90
26803;DHT22;14378;51.796;5.808;2024-03-08T06:54:51;3.00;99.90
26803;DHT22;14378;51.796;5.808;2024-03-08T06:56:54;3.00;99.90
26803;DHT22;14378;51.796;5.808;2024-03-08T06:59:01;3.00;99.90
26803;DHT22;14378;51.796;5.808;2024-03-08T07:01:08;3.00;99.90
26803;DHT22;14378;51.796;5.808;2024-03-08T07:03:17;3.00;99.90
26803;DHT22;14378;51.796;5.808;2024-03-08T07:05:24;3.00;99.90
26803;DHT22;14378;51.796;5.808;2024-03-08T07:07:29;3.00;99.90
26803;DHT22;14378;51.796;5.808;2024-03-08T07:09:36;3.00;99.90
26803;DHT22;14378;51.796;5.808;2024-03-08T07:11:43;3.10;99.90
26803;DHT22;14378;51.796;5.808;2024-03-08T07:13:45;3.10;99.90
26803;DHT22;14378;51.796;5.808;2024-03-08T07:15:52;3.10;99.90
26803;DHT22;14378;51.796;5.808;2024-03-08T07:17:54;3.10;99.90
26803;DHT22;14378;51.796;5.808;2024-03-08T07:19:55;3.10;99.90
26803;DHT22;14378;51.796;5.808;2024-03-08T07:22:03;3.10;99.90
26803;DHT22;14378;51.796;5.808;2024-03-08T07:24:13;3.10;99.90
26803;DHT22;14378;51.796;5.808;2024-03-08T07:26:28;3.20;99.90
26803;DHT22;14378;51.796;5.808;2024-03-08T07:28:39;3.10;99.90
26803;DHT22;14378;51.796;5.808;2024-03-08T07:30:43;3.20;99.90
26803;DHT22;14378;51.796;5.808;2024-03-08T07:33:00;3.20;99.90
26803;DHT22;14378;51.796;5.808;2024-03-08T07:35:02;3.30;99.90
26803;DHT22;14378;51.796;5.808;2024-03-08T07:37:08;3.30;99.90
26803;DHT22;14378;51.796;5.808;2024-03-08T07:39:15;3.30;99.90
26803;DHT22;14378;51.796;5.808;2024-03-08T07:41:16;3.30;99.90
26803;DHT22;14378;51.796;5.808;2024-03-08T07:43:22;3.30;99.90
26803;DHT22;14378;51.796;5.808;2024-03-08T07:45:23;3.40;99.90
26803;DHT22;14378;51.796;5.808;2024-03-08T07:47:30;3.40;99.90
26803;DHT22;14378;51.796;5.808;2024-03-08T07:49:35;3.40;99.90
26803;DHT22;14378;51.796;5.808;2024-03-08T07:51:43;3.50;99.90
26803;DHT22;14378;51.796;5.808;2024-03-08T07:53:44;3.50;99.90
26803;DHT22;14378;51.796;5.808;2024-03-08T07:55:58;3.50;99.90
26803;DHT22;14378;51.796;5.808;2024-03-08T07:58:01;3.50;99.90
26803;DHT22;14378;51.796;5.808;2024-03-08T08:00:07;3.60;99.90
26803;DHT22;14378;51.796;5.808;2024-03-08T08:02:10;3.60;99.90
26803;DHT22;14378;51.796;5.808;2024-03-08T08:04:20;3.70;99.90
26803;DHT22;14378;51.796;5.808;2024-03-08T08:09:04;3.70;99.90
26803;DHT22;14378;51.796;5.808;2024-03-08T08:11:07;3.80;99.90
26803;DHT22;14378;51.796;5.808;2024-03-08T08:13:10;3.80;99.90
26803;DHT22;14378;51.796;5.808;2024-03-08T08:15:11;3.90;99.90
26803;DHT22;14378;51.796;5.808;2024-03-08T08:17:13;3.90;99.90
26803;DHT22;14378;51.796;5.808;2024-03-08T08:19:20;4.00;99.90
26803;DHT22;14378;51.796;5.808;2024-03-08T08:21:22;4.00;99.90
26803;DHT22;14378;51.796;5.808;2024-03-08T08:23:26;4.10;99.90
26803;DHT22;14378;51.796;5.808;2024-03-08T08:25:41;4.20;99.90
26803;DHT22;14378;51.796;5.808;2024-03-08T08:27:50;4.20;99.90
26803;DHT22;14378;51.796;5.808;2024-03-08T08:30:03;4.30;99.90
26803;DHT22;14378;51.796;5.808;2024-03-08T08:32:08;4.30;99.90
26803;DHT22;14378;51.796;5.808;2024-03-08T08:34:10;4.40;99.90
26803;DHT22;14378;51.796;5.808;2024-03-08T08:36:12;4.50;99.90
26803;DHT22;14378;51.796;5.808;2024-03-08T08:38:17;4.50;99.90
26803;DHT22;14378;51.796;5.808;2024-03-08T08:40:18;4.60;99.90
26803;DHT22;14378;51.796;5.808;2024-03-08T08:42:26;4.70;99.90
26803;DHT22;14378;51.796;5.808;2024-03-08T08:44:34;4.70;99.90
26803;DHT22;14378;51.796;5.808;2024-03-08T08:46:44;4.80;99.90
26803;DHT22;14378;51.796;5.808;2024-03-08T08:48:45;4.90;99.90
26803;DHT22;14378;51.796;5.808;2024-03-08T08:50:48;4.90;99.90
26803;DHT22;14378;51.796;5.808;2024-03-08T08:52:52;5.00;99.90
26803;DHT22;14378;51.796;5.808;2024-03-08T08:54:53;5.10;99.90
26803;DHT22;14378;51.796;5.808;2024-03-08T08:56:54;5.20;99.90
26803;DHT22;14378;51.796;5.808;2024-03-08T08:58:55;5.30;99.90
26803;DHT22;14378;51.796;5.808;2024-03-08T09:01:06;5.40;99.90
26803;DHT22;14378;51.796;5.808;2024-03-08T09:03:12;5.50;99.90
26803;DHT22;14378;51.796;5.808;2024-03-08T09:05:14;5.60;99.90
26803;DHT22;14378;51.796;5.808;2024-03-08T09:07:18;5.70;99.90
26803;DHT22;14378;51.796;5.808;2024-03-08T09:09:23;5.80;99.90
26803;DHT22;14378;51.796;5.808;2024-03-08T09:11:29;5.90;99.90
26803;DHT22;14378;51.796;5.808;2024-03-08T09:13:43;6.00;99.90
26803;DHT22;14378;51.796;5.808;2024-03-08T09:15:45;6.10;99.90
26803;DHT22;14378;51.796;5.808;2024-03-08T09:17:55;6.20;99.90
26803;DHT22;14378;51.796;5.808;2024-03-08T09:20:00;6.30;99.90
26803;DHT22;14378;51.796;5.808;2024-03-08T09:22:01;6.40;99.90
26803;DHT22;14378;51.796;5.808;2024-03-08T09:24:18;6.50;99.90
26803;DHT22;14378;51.796;5.808;2024-03-08T09:26:25;6.60;99.90
26803;DHT22;14378;51.796;5.808;2024-03-08T09:28:37;6.80;99.90
26803;DHT22;14378;51.796;5.808;2024-03-08T09:30:48;7.00;99.90
26803;DHT22;14378;51.796;5.808;2024-03-08T09:32:50;7.10;99.90
26803;DHT22;14378;51.796;5.808;2024-03-08T09:34:51;7.20;99.90
26803;DHT22;14378;51.796;5.808;2024-03-08T09:36:54;7.40;99.90
26803;DHT22;14378;51.796;5.808;2024-03-08T09:39:24;7.50;99.90
26803;DHT22;14378;51.796;5.808;2024-03-08T09:41:31;7.70;99.90
26803;DHT22;14378;51.796;5.808;2024-03-08T09:43:33;7.90;99.90
26803;DHT22;14378;51.796;5.808;2024-03-08T09:45:36;8.10;99.90
26803;DHT22;14378;51.796;5.808;2024-03-08T09:47:46;8.30;99.90
26803;DHT22;14378;51.796;5.808;2024-03-08T09:50:25;8.50;99.90
26803;DHT22;14378;51.796;5.808;2024-03-08T09:52:32;8.80;99.90
26803;DHT22;14378;51.796;5.808;2024-03-08T09:54:36;9.00;99.90
26803;DHT22;14378;51.796;5.808;2024-03-08T09:56:48;9.10;99.90
26803;DHT22;14378;51.796;5.808;2024-03-08T09:58:51;9.30;99.90
26803;DHT22;14378;51.796;5.808;2024-03-08T10:01:08;9.60;99.90
26803;DHT22;14378;51.796;5.808;2024-03-08T10:03:12;9.80;99.90
26803;DHT22;14378;51.796;5.808;2024-03-08T10:05:15;9.90;99.90
26803;DHT22;14378;51.796;5.808;2024-03-08T10:07:16;10.10;99.90
26803;DHT22;14378;51.796;5.808;2024-03-08T10:09:19;10.30;99.90
26803;DHT22;14378;51.796;5.808;2024-03-08T10:11:21;10.50;99.90
26803;DHT22;14378;51.796;5.808;2024-03-08T10:13:22;10.70;99.90
26803;DHT22;14378;51.796;5.808;2024-03-08T10:15:23;10.90;99.90
26803;DHT22;14378;51.796;5.808;2024-03-08T10:17:25;11.00;99.90
26803;DHT22;14378;51.796;5.808;2024-03-08T10:19:33;11.20;99.90
26803;DHT22;14378;51.796;5.808;2024-03-08T10:21:35;11.30;99.90
26803;DHT22;14378;51.796;5.808;2024-03-08T10:23:45;11.40;99.90
26803;DHT22;14378;51.796;5.808;2024-03-08T10:25:46;11.60;99.90
26803;DHT22;14378;51.796;5.808;2024-03-08T10:27:53;11.70;99.90
26803;DHT22;14378;51.796;5.808;2024-03-08T10:29:59;11.90;99.90
26803;DHT22;14378;51.796;5.808;2024-03-08T10:32:03;12.10;99.90
26803;DHT22;14378;51.796;5.808;2024-03-08T10:34:06;12.20;99.90
26803;DHT22;14378;51.796;5.808;2024-03-08T10:36:11;12.40;99.90
26803;DHT22;14378;51.796;5.808;2024-03-08T10:38:25;12.50;99.90
26803;DHT22;14378;51.796;5.808;2024-03-08T10:40:34;12.60;99.90
26803;DHT22;14378;51.796;5.808;2024-03-08T10:42:58;12.80;99.90
26803;DHT22;14378;51.796;5.808;2024-03-08T10:45:21;12.90;99.90
26803;DHT22;14378;51.796;5.808;2024-03-08T10:47:29;13.00;99.90
26803;DHT22;14378;51.796;5.808;2024-03-08T10:52:17;13.30;99.90
26803;DHT22;14378;51.796;5.808;2024-03-08T10:56:56;13.50;99.90
26803;DHT22;14378;51.796;5.808;2024-03-08T10:58:58;13.70;99.90
26803;DHT22;14378;51.796;5.808;2024-03-08T11:01:05;13.70;99.90
26803;DHT22;14378;51.796;5.808;2024-03-08T11:03:09;13.70;99.90
26803;DHT22;14378;51.796;5.808;2024-03-08T11:05:51;13.90;99.90
26803;DHT22;14378;51.796;5.808;2024-03-08T11:07:59;14.10;99.90
26803;DHT22;14378;51.796;5.808;2024-03-08T11:10:02;14.20;99.90
26803;DHT22;14378;51.796;5.808;2024-03-08T11:14:46;14.60;99.60
26803;DHT22;14378;51.796;5.808;2024-03-08T11:16:54;14.70;98.80
26803;DHT22;14378;51.796;5.808;2024-03-08T11:21:26;14.80;98.30
26803;DHT22;14378;51.796;5.808;2024-03-08T11:23:36;14.80;98.50
26803;DHT22;14378;51.796;5.808;2024-03-08T11:25:42;14.70;97.00
26803;DHT22;14378;51.796;5.808;2024-03-08T11:30:22;14.70;97.90
26803;DHT22;14378;51.796;5.808;2024-03-08T11:32:28;15.00;98.00
26803;DHT22;14378;51.796;5.808;2024-03-08T11:34:31;15.00;97.10
26803;DHT22;14378;51.796;5.808;2024-03-08T11:36:40;15.00;97.10
26803;DHT22;14378;51.796;5.808;2024-03-08T11:38:44;15.00;96.70
26803;DHT22;14378;51.796;5.808;2024-03-08T11:40:48;15.10;96.90
26803;DHT22;14378;51.796;5.808;2024-03-08T11:42:53;15.20;96.90
26803;DHT22;14378;51.796;5.808;2024-03-08T11:44:56;15.20;96.80
26803;DHT22;14378;51.796;5.808;2024-03-08T11:46:57;15.30;96.80
26803;DHT22;14378;51.796;5.808;2024-03-08T11:49:03;15.50;96.60
26803;DHT22;14378;51.796;5.808;2024-03-08T11:51:14;15.60;96.00
26803;DHT22;14378;51.796;5.808;2024-03-08T11:53:22;15.60;95.70
26803;DHT22;14378;51.796;5.808;2024-03-08T11:55:29;15.50;94.90
26803;DHT22;14378;51.796;5.808;2024-03-08T11:57:31;15.60;96.10
26803;DHT22;14378;51.796;5.808;2024-03-08T11:59:32;15.70;95.60
26803;DHT22;14378;51.796;5.808;2024-03-08T12:01:37;15.70;95.00
26803;DHT22;14378;51.796;5.808;2024-03-08T12:03:41;15.80;95.40
26803;DHT22;14378;51.796;5.808;2024-03-08T12:05:57;15.80;94.50
26803;DHT22;14378;51.796;5.808;2024-03-08T12:08:01;15.80;94.80
26803;DHT22;14378;51.796;5.808;2024-03-08T12:10:21;15.80;94.50
26803;DHT22;14378;51.796;5.808;2024-03-08T12:12:24;15.90;95.20
26803;DHT22;14378;51.796;5.808;2024-03-08T12:14:25;16.00;94.50
26803;DHT22;14378;51.796;5.808;2024-03-08T12:16:29;16.00;94.40
26803;DHT22;14378;51.796;5.808;2024-03-08T12:18:34;16.00;94.10
26803;DHT22;14378;51.796;5.808;2024-03-08T12:20:41;16.00;94.80
26803;DHT22;14378;51.796;5.808;2024-03-08T12:22:53;16.00;94.40
26803;DHT22;14378;51.796;5.808;2024-03-08T12:25:14;16.20;94.70
26803;DHT22;14378;51.796;5.808;2024-03-08T12:27:26;16.30;94.80
26803;DHT22;14378;51.796;5.808;2024-03-08T12:29:30;16.40;93.50
26803;DHT22;14378;51.796;5.808;2024-03-08T12:31:31;16.30;93.80
26803;DHT22;14378;51.796;5.808;2024-03-08T12:34:00;16.30;94.00
26803;DHT22;14378;51.796;5.808;2024-03-08T12:36:01;16.40;94.20
26803;DHT22;14378;51.796;5.808;2024-03-08T12:38:06;16.40;93.90
26803;DHT22;14378;51.796;5.808;2024-03-08T12:40:13;16.30;93.90
26803;DHT22;14378;51.796;5.808;2024-03-08T12:42:17;16.30;93.70
26803;DHT22;14378;51.796;5.808;2024-03-08T12:44:21;16.40;93.50
26803;DHT22;14378;51.796;5.808;2024-03-08T12:46:22;16.50;93.90
26803;DHT22;14378;51.796;5.808;2024-03-08T12:48:26;16.50;93.40
26803;DHT22;14378;51.796;5.808;2024-03-08T12:50:28;16.60;93.60
26803;DHT22;14378;51.796;5.808;2024-03-08T12:52:33;16.70;93.00
26803;DHT22;14378;51.796;5.808;2024-03-08T12:54:35;16.60;93.20
26803;DHT22;14378;51.796;5.808;2024-03-08T12:56:36;16.60;92.90
26803;DHT22;14378;51.796;5.808;2024-03-08T12:58:38;16.70;93.60
26803;DHT22;14378;51.796;5.808;2024-03-08T13:00:39;16.60;93.50
26803;DHT22;14378;51.796;5.808;2024-03-08T13:02:43;16.60;93.10
26803;DHT22;14378;51.796;5.808;2024-03-08T13:04:45;16.70;93.60
26803;DHT22;14378;51.796;5.808;2024-03-08T13:06:47;16.90;94.30
26803;DHT22;14378;51.796;5.808;2024-03-08T13:08:55;17.10;93.70
26803;DHT22;14378;51.796;5.808;2024-03-08T13:10:57;17.20;93.20
26803;DHT22;14378;51.796;5.808;2024-03-08T13:13:02;17.30;92.80
26803;DHT22;14378;51.796;5.808;2024-03-08T13:15:07;17.40;92.90
26803;DHT22;14378;51.796;5.808;2024-03-08T13:17:17;17.50;92.80
26803;DHT22;14378;51.796;5.808;2024-03-08T13:19:19;17.50;92.60
26803;DHT22;14378;51.796;5.808;2024-03-08T13:21:22;17.50;92.20
26803;DHT22;14378;51.796;5.808;2024-03-08T13:23:24;17.40;92.70
26803;DHT22;14378;51.796;5.808;2024-03-08T13:25:28;17.50;92.70
26803;DHT22;14378;51.796;5.808;2024-03-08T13:27:29;17.50;92.10
26803;DHT22;14378;51.796;5.808;2024-03-08T13:29:31;17.40;91.70
26803;DHT22;14378;51.796;5.808;2024-03-08T13:31:34;17.40;91.60
26803;DHT22;14378;51.796;5.808;2024-03-08T13:33:39;17.30;91.40
26803;DHT22;14378;51.796;5.808;2024-03-08T13:35:42;17.30;92.20
26803;DHT22;14378;51.796;5.808;2024-03-08T13:37:43;17.20;92.50